Portada
METAR-TAF:

METAR-TAF

Aeroports :

Kostanay, Kazakhstan

latitud: 53-12-23N, longitud: 063-33-03E, altitud: 182 m

Observació

L'informe es va fer fa 22 minuts, a les 05:00 UTC
Vent 8 kt del Sud
Temperatura -13°C
Humitat 85%
Pressió 1034 hPa
Visibilitat 10 km o més
sense núvols per sota de 1500 mi sense presència de cumulonimbus.

METAR: UAUU 160500Z 17004MPS CAVOK M13/M15 Q1034 R15/410157 NOSIG RMK QFE759/1012

Hora: 11:22 (05:22 UTC)

Pronòstic

L'informe es va fer fa 3 hores i 22 minuts, a les 02:00 UTC
Pronòstic vàlid del 16 a les 03 UTC al 16 a les 12 UTC
Vent 6 kt del Sud
Visibilitat 10 km o més
Cel ennuvolat a una alçada de 3000 ft
Temporalment
l' 16 a les 03 UTC al 16 a les 05 UTC
Visibilitat: 0300 m
a una alçada de 200 ft
boira gebradora

TAF: UAUU 160200Z 1603/1612 19003MPS 9999 BKN030 TEMPO 1603/1605 0300 FZFG VV002

Observacions i pronòstics meteorològics de més de 4000 aeroports (METAR i TAF).

Les estacions disponibles són els punts grocs i vermells al mapa.

Posi el ratolí al punt desitjat per veure el nom de l'estació.

Feu clic per veure les observacions i els pronòstics meteorològics.

Per canviar el mapa: feu clic els botons verds amb una creu de color negre per apropar; al botó verd amb un guió per allunyar la imatge; o en les fletxes verdes per a mapes adjacents.


METAR-TAF: